createdAt,value
2019-03-27T00:00:07.042Z,3.62
2019-03-27T00:01:11.243Z,3.68
2019-03-27T00:02:15.486Z,3.67
2019-03-27T00:03:19.777Z,3.67
2019-03-27T00:04:24.146Z,3.57
2019-03-27T00:05:28.226Z,3.60
2019-03-27T00:06:32.593Z,3.53
2019-03-27T00:07:36.951Z,3.54
2019-03-27T00:08:41.160Z,3.55
2019-03-27T00:09:45.529Z,3.48
2019-03-27T00:10:49.801Z,3.45
2019-03-27T00:11:53.778Z,3.45
2019-03-27T00:12:58.268Z,3.43
2019-03-27T00:14:02.502Z,3.54
2019-03-27T00:15:12.694Z,3.71
2019-03-27T00:16:11.068Z,3.77
2019-03-27T00:17:15.342Z,3.78
2019-03-27T00:18:19.550Z,3.71
2019-03-27T00:19:23.778Z,3.61
2019-03-27T00:20:28.166Z,3.58
2019-03-27T00:21:32.369Z,3.58
2019-03-27T00:22:36.694Z,3.67
2019-03-27T00:23:40.942Z,3.71
2019-03-27T00:24:45.303Z,3.71
2019-03-27T00:25:49.461Z,3.82
2019-03-27T00:26:53.726Z,3.84
2019-03-27T00:27:57.976Z,3.90
2019-03-27T00:29:02.342Z,3.95
2019-03-27T00:30:06.577Z,3.95
2019-03-27T00:31:11.964Z,3.86
2019-03-27T00:32:15.139Z,3.79
2019-03-27T00:33:19.338Z,3.85
2019-03-27T00:34:23.410Z,3.87
2019-03-27T00:35:28.606Z,4.06
2019-03-27T00:36:32.439Z,4.08
2019-03-27T00:37:36.798Z,4.07
2019-03-27T00:38:41.002Z,4.11
2019-03-27T00:39:45.228Z,4.14
2019-03-27T00:40:49.529Z,4.14
2019-03-27T00:41:53.662Z,4.16
2019-03-27T00:42:58.054Z,4.13
2019-03-27T00:44:02.335Z,4.10
2019-03-27T00:45:06.469Z,4.04
2019-03-27T00:46:10.757Z,4.03
2019-03-27T00:47:14.925Z,4.24
2019-03-27T00:48:19.160Z,4.21
2019-03-27T00:49:23.311Z,4.37
2019-03-27T00:50:28.566Z,4.40
2019-03-27T00:51:32.506Z,4.47
2019-03-27T00:52:36.678Z,4.50
2019-03-27T00:53:40.978Z,4.52
2019-03-27T00:54:45.304Z,4.55
2019-03-27T00:55:49.496Z,4.60
2019-03-27T00:56:53.743Z,4.56
2019-03-27T00:57:57.888Z,4.63
2019-03-27T00:59:02.095Z,4.61
2019-03-27T01:00:06.404Z,4.62
2019-03-27T01:01:10.725Z,4.53
2019-03-27T01:02:14.895Z,4.48
2019-03-27T01:03:19.086Z,4.49
2019-03-27T01:04:23.387Z,4.54
2019-03-27T01:05:27.618Z,4.63
2019-03-27T01:06:31.843Z,4.62
2019-03-27T01:07:36.204Z,4.67
2019-03-27T01:08:40.520Z,4.64
2019-03-27T01:09:44.689Z,4.67
2019-03-27T01:10:48.922Z,4.83
2019-03-27T01:11:53.198Z,4.83
2019-03-27T01:12:57.485Z,4.88
2019-03-27T01:14:01.725Z,4.86
2019-03-27T01:15:05.880Z,4.89
2019-03-27T01:16:10.294Z,4.88
2019-03-27T01:17:14.601Z,4.82
2019-03-27T01:18:18.771Z,4.81
2019-03-27T01:19:23.049Z,4.90
2019-03-27T01:20:27.389Z,4.94
2019-03-27T01:21:31.447Z,4.92
2019-03-27T01:22:35.819Z,4.85
2019-03-27T01:23:40.037Z,4.80
2019-03-27T01:24:44.115Z,4.92
2019-03-27T01:25:48.326Z,4.95
2019-03-27T01:26:52.541Z,4.92
2019-03-27T01:27:56.698Z,4.88
2019-03-27T01:29:00.902Z,4.89
2019-03-27T01:30:05.304Z,4.94
2019-03-27T01:31:09.415Z,4.92
2019-03-27T01:32:13.692Z,5.00
2019-03-27T01:33:17.836Z,4.96
2019-03-27T01:34:22.100Z,5.00
2019-03-27T01:35:26.268Z,4.97
2019-03-27T01:36:30.599Z,4.98
2019-03-27T01:37:34.859Z,4.92
2019-03-27T01:38:39.103Z,4.90
2019-03-27T01:39:43.311Z,4.89
2019-03-27T01:40:47.610Z,4.94
2019-03-27T01:41:51.673Z,4.94
2019-03-27T01:42:59.008Z,5.06
2019-03-27T01:44:02.438Z,5.07
2019-03-27T01:45:06.614Z,5.03
2019-03-27T01:46:10.786Z,5.03
2019-03-27T01:47:14.964Z,5.05
2019-03-27T01:48:19.200Z,5.01
2019-03-27T01:49:23.488Z,5.01
2019-03-27T01:50:27.629Z,5.02
2019-03-27T01:51:31.961Z,5.04
2019-03-27T01:52:36.176Z,5.08
2019-03-27T01:53:40.350Z,5.12
2019-03-27T01:54:44.623Z,5.22
2019-03-27T01:55:48.744Z,5.22
2019-03-27T01:56:53.070Z,5.19
2019-03-27T01:57:57.408Z,5.15
2019-03-27T01:59:01.519Z,5.09
2019-03-27T02:00:05.811Z,5.10
2019-03-27T02:01:09.956Z,5.05
2019-03-27T02:02:14.329Z,5.07
2019-03-27T02:03:18.460Z,5.17
2019-03-27T02:04:22.702Z,5.12
2019-03-27T02:05:26.947Z,5.10
2019-03-27T02:06:31.211Z,5.19
2019-03-27T02:07:35.423Z,5.19
2019-03-27T02:08:39.740Z,5.17
2019-03-27T02:09:43.922Z,5.15
2019-03-27T02:10:48.162Z,5.10
2019-03-27T02:11:52.513Z,5.12
2019-03-27T02:12:56.774Z,5.12
2019-03-27T02:14:00.976Z,5.19
2019-03-27T02:15:05.240Z,5.17
2019-03-27T02:16:09.410Z,5.15
2019-03-27T02:17:13.726Z,5.14
2019-03-27T02:18:18.004Z,5.11
2019-03-27T02:19:22.201Z,5.14
2019-03-27T02:20:26.355Z,5.20
2019-03-27T02:21:30.702Z,5.14
2019-03-27T02:22:34.913Z,5.11
2019-03-27T02:23:39.152Z,5.12
2019-03-27T02:24:43.468Z,5.11
2019-03-27T02:25:47.553Z,5.09
2019-03-27T02:26:51.838Z,5.17
2019-03-27T02:27:56.043Z,5.15
2019-03-27T02:29:00.205Z,5.12
2019-03-27T02:30:04.641Z,5.15
2019-03-27T02:31:08.857Z,5.17
2019-03-27T02:32:13.220Z,5.17
2019-03-27T02:33:17.397Z,5.19
2019-03-27T02:34:21.509Z,5.16
2019-03-27T02:35:25.851Z,5.14
2019-03-27T02:36:30.011Z,5.11
2019-03-27T02:37:34.203Z,5.11
2019-03-27T02:38:38.514Z,5.13
2019-03-27T02:39:42.674Z,5.09
2019-03-27T02:40:47.015Z,5.06
2019-03-27T02:41:51.217Z,5.12
2019-03-27T02:42:55.510Z,5.07
2019-03-27T02:43:59.778Z,5.06
2019-03-27T02:45:03.974Z,5.05
2019-03-27T02:46:23.908Z,5.04
2019-03-27T02:47:12.559Z,4.98
2019-03-27T02:48:16.865Z,4.96
2019-03-27T02:49:21.169Z,4.90
2019-03-27T02:50:25.349Z,4.92
2019-03-27T02:51:29.539Z,4.87
2019-03-27T02:52:33.801Z,4.86
2019-03-27T02:53:37.904Z,4.83
2019-03-27T02:54:42.233Z,4.79
2019-03-27T02:55:46.465Z,4.73
2019-03-27T02:56:50.680Z,4.74
2019-03-27T02:57:54.966Z,4.73
2019-03-27T02:58:59.147Z,4.74
2019-03-27T03:00:03.405Z,4.71
2019-03-27T03:01:07.666Z,4.68
2019-03-27T03:02:11.857Z,4.71
2019-03-27T03:03:16.018Z,4.72
2019-03-27T03:04:20.327Z,4.69
2019-03-27T03:05:24.531Z,4.66
2019-03-27T03:06:28.783Z,4.64
2019-03-27T03:07:33.055Z,4.63
2019-03-27T03:08:37.240Z,4.58
2019-03-27T03:09:41.553Z,4.57
2019-03-27T03:10:46.067Z,4.55
2019-03-27T03:11:49.993Z,4.53
2019-03-27T03:12:54.342Z,4.54
2019-03-27T03:13:58.567Z,4.54
2019-03-27T03:15:02.819Z,4.53
2019-03-27T03:16:07.070Z,4.51
2019-03-27T03:17:11.144Z,4.47
2019-03-27T03:18:15.335Z,4.45
2019-03-27T03:19:19.625Z,4.46
2019-03-27T03:20:23.857Z,4.46
2019-03-27T03:21:28.102Z,4.46
2019-03-27T03:22:32.468Z,4.42
2019-03-27T03:23:36.586Z,4.39
2019-03-27T03:24:40.957Z,4.37
2019-03-27T03:25:45.363Z,4.37
2019-03-27T03:26:51.159Z,4.37
2019-03-27T03:27:53.662Z,4.35
2019-03-27T03:28:57.948Z,4.34
2019-03-27T03:30:02.230Z,4.33
2019-03-27T03:31:06.445Z,4.34
2019-03-27T03:32:10.671Z,4.33
2019-03-27T03:33:14.961Z,4.33
2019-03-27T03:34:19.117Z,4.37
2019-03-27T03:35:23.393Z,4.40
2019-03-27T03:36:27.574Z,4.39
2019-03-27T03:37:31.831Z,4.43
2019-03-27T03:38:36.176Z,4.43
2019-03-27T03:39:40.344Z,4.46
2019-03-27T03:40:44.606Z,4.46
2019-03-27T03:41:48.926Z,4.49
2019-03-27T03:42:53.135Z,4.51
2019-03-27T03:43:57.363Z,4.55
2019-03-27T03:45:01.550Z,4.58
2019-03-27T03:46:05.809Z,4.58
2019-03-27T03:47:10.066Z,4.66
2019-03-27T03:48:14.325Z,4.66
2019-03-27T03:49:18.502Z,4.66
2019-03-27T03:50:22.755Z,4.71
2019-03-27T03:51:26.912Z,4.74
2019-03-27T03:52:31.264Z,4.76
2019-03-27T03:53:35.552Z,4.80
2019-03-27T03:54:42.848Z,4.82
2019-03-27T03:55:46.225Z,4.86
2019-03-27T03:56:50.443Z,4.87
2019-03-27T03:57:54.751Z,4.91
2019-03-27T03:58:58.864Z,4.88
2019-03-27T04:00:03.281Z,4.91
2019-03-27T04:01:07.480Z,4.88
2019-03-27T04:02:11.871Z,4.91
2019-03-27T04:03:16.120Z,4.89
2019-03-27T04:04:20.446Z,4.92
2019-03-27T04:05:24.769Z,4.92
2019-03-27T04:06:28.931Z,4.96
2019-03-27T04:07:33.247Z,4.92
2019-03-27T04:08:37.386Z,4.97
2019-03-27T04:09:41.580Z,4.95
2019-03-27T04:10:45.790Z,5.00
2019-03-27T04:11:50.189Z,4.99
2019-03-27T04:12:54.443Z,5.01
2019-03-27T04:13:58.716Z,5.03
2019-03-27T04:15:02.916Z,5.00
2019-03-27T04:16:07.052Z,5.04
2019-03-27T04:17:17.258Z,5.02
2019-03-27T04:18:15.528Z,5.02
2019-03-27T04:19:19.791Z,5.06
2019-03-27T04:20:24.058Z,5.04
2019-03-27T04:21:28.236Z,5.01
2019-03-27T04:22:32.477Z,5.03
2019-03-27T04:23:36.719Z,5.06
2019-03-27T04:24:41.082Z,5.05
2019-03-27T04:26:08.159Z,5.04
2019-03-27T04:26:49.488Z,5.11
2019-03-27T04:27:53.730Z,5.10
2019-03-27T04:28:57.966Z,5.06
2019-03-27T04:30:02.130Z,5.05
2019-03-27T04:31:06.514Z,5.05
2019-03-27T04:32:10.712Z,5.03
2019-03-27T04:33:15.036Z,5.08
2019-03-27T04:34:19.278Z,5.06
2019-03-27T04:35:23.549Z,5.04
2019-03-27T04:36:27.810Z,5.03
2019-03-27T04:37:32.026Z,5.05
2019-03-27T04:38:36.378Z,5.06
2019-03-27T04:39:40.520Z,5.06
2019-03-27T04:40:44.836Z,5.06
2019-03-27T04:41:49.092Z,5.08
2019-03-27T04:42:53.443Z,5.10
2019-03-27T04:43:57.717Z,5.14
2019-03-27T04:45:01.919Z,5.11
2019-03-27T04:46:06.082Z,5.14
2019-03-27T04:47:10.272Z,5.19
2019-03-27T04:48:14.618Z,5.23
2019-03-27T04:49:18.734Z,5.22
2019-03-27T04:50:22.941Z,5.17
2019-03-27T04:51:27.112Z,5.19
2019-03-27T04:52:31.481Z,5.21
2019-03-27T04:53:35.787Z,5.25
2019-03-27T04:54:40.122Z,5.25
2019-03-27T04:55:44.223Z,5.28
2019-03-27T04:56:48.621Z,5.24
2019-03-27T04:57:52.951Z,5.29
2019-03-27T04:58:57.259Z,5.28
2019-03-27T05:00:01.385Z,5.30
2019-03-27T05:01:05.624Z,5.28
2019-03-27T05:02:09.878Z,5.24
2019-03-27T05:03:17.016Z,5.23
2019-03-27T05:04:20.350Z,5.22
2019-03-27T05:05:24.574Z,5.23
2019-03-27T05:06:28.789Z,5.21
2019-03-27T05:07:33.050Z,5.26
2019-03-27T05:08:37.324Z,5.27
2019-03-27T05:09:41.553Z,5.29
2019-03-27T05:10:45.808Z,5.25
2019-03-27T05:11:49.911Z,5.23
2019-03-27T05:12:54.110Z,5.21
2019-03-27T05:13:58.401Z,5.21
2019-03-27T05:15:02.650Z,5.21
2019-03-27T05:16:06.995Z,5.27
2019-03-27T05:17:11.161Z,5.29
2019-03-27T05:18:15.328Z,5.28
2019-03-27T05:19:19.530Z,5.28
2019-03-27T05:20:23.845Z,5.27
2019-03-27T05:21:28.063Z,5.31
2019-03-27T05:22:32.201Z,5.28
2019-03-27T05:23:36.356Z,5.31
2019-03-27T05:24:40.777Z,5.31
2019-03-27T05:25:44.867Z,5.27
2019-03-27T05:26:49.162Z,5.29
2019-03-27T05:27:53.392Z,5.30
2019-03-27T05:28:57.695Z,5.29
2019-03-27T05:30:01.801Z,5.33
2019-03-27T05:31:06.092Z,5.31
2019-03-27T05:32:10.336Z,5.29
2019-03-27T05:33:14.566Z,5.30
2019-03-27T05:34:18.694Z,5.29
2019-03-27T05:35:22.990Z,5.32
2019-03-27T05:36:27.227Z,5.36
2019-03-27T05:37:31.551Z,5.38
2019-03-27T05:38:35.572Z,5.35
2019-03-27T05:39:39.917Z,5.35
2019-03-27T05:40:44.181Z,5.38
2019-03-27T05:41:48.338Z,5.41
2019-03-27T05:43:00.721Z,5.42
2019-03-27T05:43:56.864Z,5.40
2019-03-27T05:45:01.111Z,5.41
2019-03-27T05:46:05.251Z,5.41
2019-03-27T05:47:09.342Z,5.47
2019-03-27T05:48:13.585Z,5.45
2019-03-27T05:49:17.875Z,5.43
2019-03-27T05:50:22.170Z,5.43
2019-03-27T05:51:26.431Z,5.50
2019-03-27T05:52:30.688Z,5.51
2019-03-27T05:53:34.937Z,5.52
2019-03-27T05:54:39.078Z,5.55
2019-03-27T05:55:43.328Z,5.55
2019-03-27T05:56:47.598Z,5.56
2019-03-27T05:57:51.744Z,5.58
2019-03-27T05:58:56.056Z,5.58
2019-03-27T06:00:00.502Z,5.62
2019-03-27T06:01:04.589Z,5.61
2019-03-27T06:02:08.912Z,5.63
2019-03-27T06:03:13.106Z,5.67
2019-03-27T06:04:17.264Z,5.63
2019-03-27T06:05:21.559Z,5.62
2019-03-27T06:06:25.867Z,5.62
2019-03-27T06:07:30.086Z,5.65
2019-03-27T06:08:34.344Z,5.64
2019-03-27T06:09:38.580Z,5.64
2019-03-27T06:10:42.746Z,5.63
2019-03-27T06:11:47.054Z,5.65
2019-03-27T06:12:51.207Z,5.70
2019-03-27T06:13:55.337Z,5.69
2019-03-27T06:14:59.663Z,5.69
2019-03-27T06:16:03.871Z,5.70
2019-03-27T06:17:07.921Z,5.72
2019-03-27T06:18:13.375Z,5.77
2019-03-27T06:19:16.556Z,5.75
2019-03-27T06:20:20.584Z,5.75
2019-03-27T06:21:24.925Z,5.76
2019-03-27T06:22:29.216Z,5.75
2019-03-27T06:23:33.547Z,5.76
2019-03-27T06:24:37.776Z,5.76
2019-03-27T06:25:42.113Z,5.75
2019-03-27T06:26:46.198Z,5.76
2019-03-27T06:27:50.533Z,5.79
2019-03-27T06:28:54.693Z,5.76
2019-03-27T06:29:59.092Z,5.77
2019-03-27T06:31:03.317Z,5.78
2019-03-27T06:32:07.566Z,5.82
2019-03-27T06:33:11.789Z,5.84
2019-03-27T06:34:16.045Z,5.85
2019-03-27T06:35:20.431Z,5.85
2019-03-27T06:36:24.640Z,5.86
2019-03-27T06:37:28.883Z,5.88
2019-03-27T06:38:33.052Z,5.90
2019-03-27T06:39:37.294Z,5.93
2019-03-27T06:40:41.552Z,5.98
2019-03-27T06:41:45.833Z,6.05
2019-03-27T06:42:49.990Z,6.04
2019-03-27T06:43:54.294Z,6.08
2019-03-27T06:44:58.563Z,6.11
2019-03-27T06:46:02.828Z,6.12
2019-03-27T06:47:07.109Z,6.13
2019-03-27T06:48:11.391Z,6.14
2019-03-27T06:49:15.697Z,6.12
2019-03-27T06:50:19.911Z,6.12
2019-03-27T06:51:25.286Z,6.13
2019-03-27T06:52:28.392Z,6.14
2019-03-27T06:53:32.629Z,6.19
2019-03-27T06:54:36.811Z,6.18
2019-03-27T06:55:40.949Z,6.16
2019-03-27T06:56:45.298Z,6.17
2019-03-27T06:57:49.465Z,6.19
2019-03-27T06:58:55.030Z,6.19
2019-03-27T06:59:57.963Z,6.20
2019-03-27T07:01:02.314Z,6.25
2019-03-27T07:02:06.448Z,6.29
2019-03-27T07:03:10.671Z,6.33
2019-03-27T07:04:14.889Z,6.38
2019-03-27T07:05:19.198Z,6.43
2019-03-27T07:06:23.480Z,6.45
2019-03-27T07:07:27.771Z,6.46
2019-03-27T07:08:31.907Z,6.47
2019-03-27T07:09:36.187Z,6.48
2019-03-27T07:10:40.326Z,6.50
2019-03-27T07:11:44.606Z,6.50
2019-03-27T07:12:48.761Z,6.48
2019-03-27T07:13:53.103Z,6.49
2019-03-27T07:14:57.441Z,6.43
2019-03-27T07:16:01.465Z,6.44
2019-03-27T07:17:05.815Z,6.40
2019-03-27T07:18:10.110Z,6.40
2019-03-27T07:19:14.290Z,6.45
2019-03-27T07:20:18.640Z,6.43
2019-03-27T07:21:22.895Z,6.42
2019-03-27T07:22:27.148Z,6.40
2019-03-27T07:23:31.401Z,6.39
2019-03-27T07:24:35.763Z,6.40
2019-03-27T07:25:39.975Z,6.41
2019-03-27T07:26:44.337Z,6.41
2019-03-27T07:27:48.561Z,6.42
2019-03-27T07:28:52.871Z,6.43
2019-03-27T07:29:57.148Z,6.45
2019-03-27T07:31:01.416Z,6.46
2019-03-27T07:32:05.695Z,6.43
2019-03-27T07:33:10.002Z,6.42
2019-03-27T07:34:14.243Z,6.42
2019-03-27T07:35:18.420Z,6.42
2019-03-27T07:36:22.745Z,6.40
2019-03-27T07:37:26.907Z,6.38
2019-03-27T07:38:31.213Z,6.40
2019-03-27T07:39:35.490Z,6.36
2019-03-27T07:40:39.672Z,6.35
2019-03-27T07:41:43.986Z,6.37
2019-03-27T07:42:48.270Z,6.41
2019-03-27T07:43:52.584Z,6.47
2019-03-27T07:44:56.837Z,6.50
2019-03-27T07:46:01.121Z,6.51
2019-03-27T07:47:05.392Z,6.50
2019-03-27T07:48:09.611Z,6.49
2019-03-27T07:49:13.792Z,6.51
2019-03-27T07:50:18.041Z,6.51
2019-03-27T07:51:22.349Z,6.53
2019-03-27T07:52:26.612Z,6.54
2019-03-27T07:53:30.827Z,6.55
2019-03-27T07:54:35.139Z,6.59
2019-03-27T07:55:39.375Z,6.59
2019-03-27T07:56:43.556Z,6.60
2019-03-27T07:57:47.753Z,6.61
2019-03-27T07:58:52.112Z,6.61
2019-03-27T07:59:56.431Z,6.65
2019-03-27T08:01:00.546Z,6.68
2019-03-27T08:02:04.792Z,6.74
2019-03-27T08:03:09.197Z,6.71
2019-03-27T08:04:14.592Z,6.70
2019-03-27T08:05:17.571Z,6.66
2019-03-27T08:06:21.779Z,6.65
2019-03-27T08:07:27.226Z,6.65
2019-03-27T08:08:30.380Z,6.64
2019-03-27T08:09:34.694Z,6.64
2019-03-27T08:10:38.969Z,6.69
2019-03-27T08:11:43.209Z,6.68
2019-03-27T08:12:50.295Z,6.70
2019-03-27T08:13:53.699Z,6.69
2019-03-27T08:14:57.978Z,6.72
2019-03-27T08:16:02.224Z,6.72
2019-03-27T08:17:06.491Z,6.70
2019-03-27T08:18:10.652Z,6.72
2019-03-27T08:19:14.894Z,6.74
2019-03-27T08:20:19.122Z,6.77
2019-03-27T08:21:23.497Z,6.79
2019-03-27T08:22:27.732Z,6.83
2019-03-27T08:23:31.888Z,6.85
2019-03-27T08:24:36.219Z,6.84
2019-03-27T08:25:40.501Z,6.84
2019-03-27T08:26:44.757Z,6.81
2019-03-27T08:27:49.037Z,6.77
2019-03-27T08:28:53.297Z,6.74
2019-03-27T08:29:57.622Z,6.74
2019-03-27T08:31:01.868Z,6.72
2019-03-27T08:32:06.130Z,6.74
2019-03-27T08:33:10.460Z,6.76
2019-03-27T08:34:14.671Z,6.83
2019-03-27T08:35:19.000Z,6.85
2019-03-27T08:36:23.252Z,6.83
2019-03-27T08:37:27.512Z,6.91
2019-03-27T08:38:31.874Z,6.95
2019-03-27T08:39:36.013Z,6.92
2019-03-27T08:40:40.341Z,6.95
2019-03-27T08:41:44.659Z,6.98
2019-03-27T08:42:48.939Z,7.01
2019-03-27T08:43:53.176Z,7.02
2019-03-27T08:44:57.371Z,7.00
2019-03-27T08:46:01.666Z,7.01
2019-03-27T08:47:05.958Z,7.01
2019-03-27T08:48:10.203Z,7.03
2019-03-27T08:49:21.681Z,7.02
2019-03-27T08:50:18.710Z,7.02
2019-03-27T08:51:22.990Z,7.02
2019-03-27T08:52:27.350Z,7.05
2019-03-27T08:53:31.558Z,7.01
2019-03-27T08:54:35.808Z,7.02
2019-03-27T08:55:40.136Z,7.02
2019-03-27T08:56:44.360Z,6.99
2019-03-27T08:57:48.699Z,7.01
2019-03-27T08:58:52.916Z,6.98
2019-03-27T08:59:57.170Z,7.02
2019-03-27T09:01:01.442Z,7.05
2019-03-27T09:02:05.746Z,7.05
2019-03-27T09:03:10.011Z,7.03
2019-03-27T09:04:14.303Z,7.06
2019-03-27T09:05:18.517Z,7.06
2019-03-27T09:06:33.078Z,7.07
2019-03-27T09:07:27.111Z,7.12
2019-03-27T09:08:31.369Z,7.12
2019-03-27T09:09:35.646Z,7.13
2019-03-27T09:10:39.860Z,7.12
2019-03-27T09:11:44.167Z,7.11
2019-03-27T09:12:48.430Z,7.10
2019-03-27T09:13:52.720Z,7.07
2019-03-27T09:14:57.093Z,7.07
2019-03-27T09:16:01.361Z,7.07
2019-03-27T09:17:05.596Z,7.07
2019-03-27T09:18:09.979Z,7.10
2019-03-27T09:19:14.221Z,7.10
2019-03-27T09:20:18.495Z,7.08
2019-03-27T09:21:22.693Z,7.10
2019-03-27T09:22:27.024Z,7.13
2019-03-27T09:23:31.378Z,7.11
2019-03-27T09:24:35.487Z,7.10
2019-03-27T09:25:39.638Z,7.12
2019-03-27T09:26:43.834Z,7.13
2019-03-27T09:27:48.218Z,7.14
2019-03-27T09:28:52.491Z,7.17
2019-03-27T09:29:56.791Z,7.16
2019-03-27T09:31:00.924Z,7.16
2019-03-27T09:32:05.273Z,7.15
2019-03-27T09:33:09.556Z,7.15
2019-03-27T09:34:13.824Z,7.18
2019-03-27T09:35:18.100Z,7.19
2019-03-27T09:36:22.391Z,7.17
2019-03-27T09:37:26.566Z,7.16
2019-03-27T09:38:30.762Z,7.13
2019-03-27T09:39:35.170Z,7.15
2019-03-27T09:40:39.398Z,7.17
2019-03-27T09:41:43.714Z,7.13
2019-03-27T09:42:47.974Z,7.15
2019-03-27T09:43:52.235Z,7.16
2019-03-27T09:44:59.516Z,7.18
2019-03-27T09:46:02.847Z,7.23
2019-03-27T09:47:07.191Z,7.24
2019-03-27T09:48:11.410Z,7.25
2019-03-27T09:49:15.591Z,7.24
2019-03-27T09:50:19.899Z,7.28
2019-03-27T09:51:24.374Z,7.28
2019-03-27T09:52:28.578Z,7.28
2019-03-27T09:53:32.876Z,7.29
2019-03-27T09:54:37.148Z,7.28
2019-03-27T09:55:41.424Z,7.29
2019-03-27T09:56:45.727Z,7.28
2019-03-27T09:57:50.000Z,7.28
2019-03-27T09:58:54.295Z,7.28
2019-03-27T09:59:58.577Z,7.28
2019-03-27T10:01:02.943Z,7.30
2019-03-27T10:02:07.166Z,7.27
2019-03-27T10:03:11.567Z,7.25
2019-03-27T10:04:15.817Z,7.25
2019-03-27T10:05:20.055Z,7.26
2019-03-27T10:06:24.359Z,7.26
2019-03-27T10:07:28.563Z,7.26
2019-03-27T10:08:32.871Z,7.25
2019-03-27T10:09:37.036Z,7.24
2019-03-27T10:10:41.383Z,7.24
2019-03-27T10:11:45.676Z,7.25
2019-03-27T10:12:50.046Z,7.31
2019-03-27T10:13:54.359Z,7.30
2019-03-27T10:14:58.487Z,7.29
2019-03-27T10:16:02.710Z,7.30
2019-03-27T10:17:07.161Z,7.32
2019-03-27T10:18:11.401Z,7.31
2019-03-27T10:19:15.666Z,7.34
2019-03-27T10:20:19.954Z,7.38
2019-03-27T10:21:24.209Z,7.40
2019-03-27T10:22:28.597Z,7.40
2019-03-27T10:23:32.766Z,7.40
2019-03-27T10:24:37.024Z,7.37
2019-03-27T10:25:41.383Z,7.35
2019-03-27T10:26:45.621Z,7.36
2019-03-27T10:27:49.945Z,7.38
2019-03-27T10:28:54.210Z,7.38
2019-03-27T10:29:58.492Z,7.38
2019-03-27T10:31:02.750Z,7.37
2019-03-27T10:32:07.146Z,7.38
2019-03-27T10:33:11.387Z,7.37
2019-03-27T10:34:15.758Z,7.37
2019-03-27T10:35:19.991Z,7.41
2019-03-27T10:36:24.251Z,7.42
2019-03-27T10:37:28.528Z,7.43
2019-03-27T10:38:32.814Z,7.41
2019-03-27T10:39:37.206Z,7.40
2019-03-27T10:40:41.403Z,7.39
2019-03-27T10:41:45.693Z,7.38
2019-03-27T10:42:50.020Z,7.39
2019-03-27T10:43:54.278Z,7.39
2019-03-27T10:44:58.538Z,7.37
2019-03-27T10:46:02.905Z,7.37
2019-03-27T10:47:07.112Z,7.39
2019-03-27T10:48:11.398Z,7.40
2019-03-27T10:49:15.654Z,7.44
2019-03-27T10:50:19.963Z,7.47
2019-03-27T10:51:24.207Z,7.48
2019-03-27T10:52:28.381Z,7.47
2019-03-27T10:53:32.736Z,7.52
2019-03-27T10:54:37.106Z,7.56
2019-03-27T10:55:41.343Z,7.58
2019-03-27T10:56:45.618Z,7.63
2019-03-27T10:57:49.805Z,7.64
2019-03-27T10:58:54.139Z,7.67
2019-03-27T10:59:58.395Z,7.71
2019-03-27T11:01:02.636Z,7.72
2019-03-27T11:02:06.905Z,7.72
2019-03-27T11:03:14.076Z,7.76
2019-03-27T11:04:17.472Z,7.79
2019-03-27T11:05:21.616Z,7.77
2019-03-27T11:06:25.910Z,7.76
2019-03-27T11:07:33.087Z,7.75
2019-03-27T11:08:36.368Z,7.75
2019-03-27T11:09:40.666Z,7.75
2019-03-27T11:10:44.826Z,7.74
2019-03-27T11:11:49.064Z,7.74
2019-03-27T11:12:53.255Z,7.76
2019-03-27T11:13:57.501Z,7.77
2019-03-27T11:15:01.710Z,7.79
2019-03-27T11:16:06.014Z,7.79
2019-03-27T11:17:10.185Z,7.77
2019-03-27T11:18:14.385Z,7.77
2019-03-27T11:19:18.608Z,7.75
2019-03-27T11:20:30.832Z,7.74
2019-03-27T11:21:27.077Z,7.74
2019-03-27T11:22:31.378Z,7.74
2019-03-27T11:23:35.541Z,7.75
2019-03-27T11:24:39.846Z,7.77
2019-03-27T11:25:44.137Z,7.78
2019-03-27T11:26:48.341Z,7.82
2019-03-27T11:27:52.593Z,7.81
2019-03-27T11:28:56.894Z,7.82
2019-03-27T11:30:01.048Z,7.84
2019-03-27T11:31:05.270Z,7.86
2019-03-27T11:32:12.586Z,7.87
2019-03-27T11:33:16.023Z,7.89
2019-03-27T11:34:20.330Z,7.91
2019-03-27T11:35:24.498Z,7.96
2019-03-27T11:36:28.918Z,7.99
2019-03-27T11:37:33.258Z,7.99
2019-03-27T11:38:37.885Z,8.01
2019-03-27T11:39:41.900Z,8.02
2019-03-27T11:40:46.252Z,8.04
2019-03-27T11:41:50.450Z,8.09
2019-03-27T11:42:54.785Z,8.14
2019-03-27T11:43:59.090Z,8.22
2019-03-27T11:45:03.467Z,8.24
2019-03-27T11:46:07.711Z,8.29
2019-03-27T11:47:12.100Z,8.32
2019-03-27T11:48:16.255Z,8.34
2019-03-27T11:49:20.647Z,8.37
2019-03-27T11:50:25.002Z,8.36
2019-03-27T11:51:29.323Z,8.30
2019-03-27T11:52:33.595Z,8.23
2019-03-27T11:53:37.959Z,8.20
2019-03-27T11:54:42.230Z,8.22
2019-03-27T11:55:46.515Z,8.20
2019-03-27T11:56:50.855Z,8.23
2019-03-27T11:57:55.129Z,8.19
2019-03-27T11:58:59.462Z,8.21
2019-03-27T12:00:03.753Z,8.21
2019-03-27T12:01:11.108Z,8.18
2019-03-27T12:02:14.486Z,8.18
2019-03-27T12:03:18.749Z,8.16
2019-03-27T12:04:23.093Z,8.16
2019-03-27T12:05:27.453Z,8.15
2019-03-27T12:06:31.687Z,8.11
2019-03-27T12:07:35.972Z,8.08
2019-03-27T12:08:40.285Z,8.11
2019-03-27T12:09:44.556Z,8.13
2019-03-27T12:10:48.882Z,8.14
2019-03-27T12:11:53.150Z,8.06
2019-03-27T12:12:57.307Z,8.10
2019-03-27T12:14:01.645Z,8.10
2019-03-27T12:15:05.943Z,8.13
2019-03-27T12:16:10.230Z,8.16
2019-03-27T12:17:14.534Z,8.19
2019-03-27T12:18:18.798Z,8.21
2019-03-27T12:19:23.118Z,8.23
2019-03-27T12:20:27.408Z,8.24
2019-03-27T12:21:31.684Z,8.23
2019-03-27T12:22:35.962Z,8.22
2019-03-27T12:23:40.271Z,8.19
2019-03-27T12:24:44.570Z,8.20
2019-03-27T12:25:48.873Z,8.19
2019-03-27T12:26:53.155Z,8.20
2019-03-27T12:27:57.477Z,8.19
2019-03-27T12:29:01.700Z,8.13
2019-03-27T12:30:06.083Z,8.13
2019-03-27T12:31:10.334Z,8.11
2019-03-27T12:32:14.584Z,8.00
2019-03-27T12:33:18.870Z,8.02
2019-03-27T12:34:23.144Z,8.02
2019-03-27T12:35:27.323Z,8.04
2019-03-27T12:36:31.680Z,8.04
2019-03-27T12:37:35.955Z,8.02
2019-03-27T12:38:40.070Z,8.03
2019-03-27T12:39:44.440Z,8.04
2019-03-27T12:40:48.772Z,8.03
2019-03-27T12:41:53.194Z,8.02
2019-03-27T12:42:57.529Z,8.04
2019-03-27T12:44:02.697Z,8.05
2019-03-27T12:45:06.190Z,8.06
2019-03-27T12:46:10.453Z,8.08
2019-03-27T12:47:14.700Z,8.09
2019-03-27T12:48:18.989Z,8.13
2019-03-27T12:49:23.279Z,8.18
2019-03-27T12:50:27.565Z,8.20
2019-03-27T12:51:31.835Z,8.25
2019-03-27T12:52:36.166Z,8.25
2019-03-27T12:53:40.440Z,8.28
2019-03-27T12:54:44.810Z,8.23
2019-03-27T12:55:49.091Z,8.31
2019-03-27T12:56:53.270Z,8.27
2019-03-27T12:57:57.598Z,8.24
2019-03-27T12:59:01.924Z,8.19
2019-03-27T13:00:06.163Z,8.17
2019-03-27T13:01:10.498Z,8.16
2019-03-27T13:02:14.774Z,8.15
2019-03-27T13:03:19.040Z,8.11
2019-03-27T13:04:23.364Z,8.09
2019-03-27T13:05:27.627Z,8.05
2019-03-27T13:06:31.965Z,8.04
2019-03-27T13:07:49.058Z,8.02
2019-03-27T13:08:40.498Z,8.02
2019-03-27T13:09:44.790Z,8.06
2019-03-27T13:10:49.044Z,8.05
2019-03-27T13:11:53.328Z,8.06
2019-03-27T13:12:57.621Z,8.08
2019-03-27T13:14:01.904Z,8.07
2019-03-27T13:15:06.273Z,8.08
2019-03-27T13:16:10.509Z,8.08
2019-03-27T13:17:14.808Z,8.07
2019-03-27T13:18:19.097Z,8.07
2019-03-27T13:19:23.409Z,8.24
2019-03-27T13:20:27.660Z,8.08
2019-03-27T13:21:31.948Z,8.07
2019-03-27T13:22:38.229Z,8.05
2019-03-27T13:23:40.517Z,8.05
2019-03-27T13:24:44.794Z,8.06
2019-03-27T13:25:49.085Z,8.08
2019-03-27T13:26:53.404Z,8.08
2019-03-27T13:27:57.687Z,8.08
2019-03-27T13:29:04.947Z,8.09
2019-03-27T13:30:08.320Z,8.09
2019-03-27T13:31:12.611Z,8.08
2019-03-27T13:32:16.802Z,8.09
2019-03-27T13:33:21.164Z,8.06
2019-03-27T13:34:25.549Z,8.09
2019-03-27T13:35:29.763Z,8.07
2019-03-27T13:36:34.129Z,8.06
2019-03-27T13:37:38.381Z,8.09
2019-03-27T13:38:42.751Z,8.08
2019-03-27T13:39:46.953Z,8.07
2019-03-27T13:40:51.323Z,8.05
2019-03-27T13:41:55.576Z,8.05
2019-03-27T13:42:59.880Z,8.07
2019-03-27T13:44:04.162Z,8.09
2019-03-27T13:45:08.435Z,8.07
2019-03-27T13:46:12.818Z,8.07
2019-03-27T13:47:17.050Z,8.05
2019-03-27T13:48:21.304Z,8.04
2019-03-27T13:49:25.816Z,8.03
2019-03-27T13:50:30.022Z,8.01
2019-03-27T13:51:40.408Z,7.98
2019-03-27T13:52:38.489Z,7.98
2019-03-27T13:53:42.902Z,7.99
2019-03-27T13:54:47.085Z,7.96
2019-03-27T13:55:51.341Z,7.96
2019-03-27T13:56:55.614Z,7.96
2019-03-27T13:57:59.813Z,7.96
2019-03-27T13:59:04.139Z,7.95
2019-03-27T14:00:08.371Z,7.92
2019-03-27T14:01:13.016Z,7.92
2019-03-27T14:02:16.947Z,7.90
2019-03-27T14:03:21.287Z,7.90
2019-03-27T14:04:25.448Z,7.90
2019-03-27T14:05:29.780Z,7.92
2019-03-27T14:06:34.099Z,7.92
2019-03-27T14:07:38.386Z,7.88
2019-03-27T14:08:42.695Z,7.90
2019-03-27T14:09:46.976Z,7.92
2019-03-27T14:10:51.253Z,7.90
2019-03-27T14:11:55.464Z,7.91
2019-03-27T14:12:59.799Z,7.88
2019-03-27T14:14:11.177Z,7.87
2019-03-27T14:15:08.445Z,7.87